createdAt,value
2022-10-30T00:02:25.625Z,95787.38
2022-10-30T00:04:52.362Z,95781.09
2022-10-30T00:07:19.151Z,95779.00
2022-10-30T00:09:45.839Z,95785.75
2022-10-30T00:12:12.647Z,95780.63
2022-10-30T00:14:39.573Z,95779.22
2022-10-30T00:17:06.278Z,95780.94
2022-10-30T00:19:33.007Z,95784.66
2022-10-30T00:24:28.638Z,95784.44
2022-10-30T00:26:55.408Z,95787.56
2022-10-30T00:29:26.367Z,95789.44
2022-10-30T00:31:53.411Z,95784.09
2022-10-30T00:34:20.487Z,95782.34
2022-10-30T00:36:47.231Z,95779.66
2022-10-30T00:39:14.119Z,95779.53
2022-10-30T00:41:42.215Z,95778.47
2022-10-30T00:44:27.964Z,95775.13
2022-10-30T00:46:54.831Z,95770.22
2022-10-30T00:49:21.553Z,95771.50
2022-10-30T00:51:52.407Z,95774.38
2022-10-30T00:54:20.578Z,95781.34
2022-10-30T00:56:49.030Z,95775.91
2022-10-30T00:59:18.510Z,95771.00
2022-10-30T01:01:46.466Z,95776.34
2022-10-30T01:04:14.470Z,95759.75
2022-10-30T01:06:43.120Z,95760.56
2022-10-30T01:09:10.308Z,95760.78
2022-10-30T01:11:37.349Z,95750.69
2022-10-30T01:14:06.799Z,95751.72
2022-10-30T01:16:52.537Z,95751.72
2022-10-30T01:19:54.295Z,95746.47
2022-10-30T01:22:30.421Z,95745.91
2022-10-30T01:24:57.286Z,95740.22
2022-10-30T01:27:34.304Z,95735.31
2022-10-30T01:30:16.301Z,95736.00
2022-10-30T01:32:58.539Z,95743.44
2022-10-30T01:35:27.111Z,95738.91
2022-10-30T01:38:12.300Z,95741.81
2022-10-30T01:40:39.039Z,95734.03
2022-10-30T01:43:05.965Z,95736.09
2022-10-30T01:45:52.656Z,95734.69
2022-10-30T01:48:22.489Z,95733.88
2022-10-30T01:50:53.643Z,95729.81
2022-10-30T01:53:23.098Z,95726.78
2022-10-30T01:55:56.473Z,95731.06
2022-10-30T01:58:28.012Z,95728.66
2022-10-30T02:00:58.191Z,95734.22
2022-10-30T02:03:25.948Z,95728.88
2022-10-30T02:05:53.730Z,95732.59
2022-10-30T02:08:21.623Z,95726.66
2022-10-30T02:10:51.473Z,95732.81
2022-10-30T02:13:30.161Z,95721.16
2022-10-30T02:15:58.427Z,95716.88
2022-10-30T02:18:25.384Z,95715.50
2022-10-30T02:20:54.057Z,95714.09
2022-10-30T02:23:22.364Z,95714.91
2022-10-30T02:25:50.396Z,95716.75
2022-10-30T02:28:17.242Z,95717.78
2022-10-30T02:30:44.220Z,95716.97
2022-10-30T02:33:11.319Z,95717.78
2022-10-30T02:35:38.337Z,95720.91
2022-10-30T02:38:05.093Z,95720.31
2022-10-30T02:40:31.967Z,95719.28
2022-10-30T02:42:59.566Z,95713.56
2022-10-30T02:45:26.465Z,95720.53
2022-10-30T02:47:53.227Z,95713.56
2022-10-30T02:50:20.053Z,95720.31
2022-10-30T02:52:47.041Z,95722.59
2022-10-30T02:55:13.868Z,95723.19
2022-10-30T02:57:41.576Z,95722.03
2022-10-30T03:00:08.443Z,95728.63
2022-10-30T03:02:35.397Z,95731.72
2022-10-30T03:05:02.385Z,95726.38
2022-10-30T03:07:29.649Z,95729.50
2022-10-30T03:09:56.367Z,95735.84
2022-10-30T03:12:23.130Z,95743.03
2022-10-30T03:14:52.069Z,95738.19
2022-10-30T03:17:18.960Z,95737.38
2022-10-30T03:19:45.981Z,95740.03
2022-10-30T03:22:13.015Z,95750.69
2022-10-30T03:24:39.804Z,95742.09
2022-10-30T03:27:06.767Z,95739.66
2022-10-30T03:29:33.559Z,95735.81
2022-10-30T03:32:02.109Z,95733.56
2022-10-30T03:34:34.187Z,95728.50
2022-10-30T03:37:04.913Z,95734.03
2022-10-30T03:39:31.783Z,95737.75
2022-10-30T03:41:58.591Z,95743.69
2022-10-30T03:44:25.609Z,95730.91
2022-10-30T03:46:53.537Z,95733.22
2022-10-30T03:49:37.428Z,95730.56
2022-10-30T03:52:09.235Z,95731.00
2022-10-30T03:54:36.139Z,95729.38
2022-10-30T03:57:03.011Z,95731.44
2022-10-30T03:59:37.456Z,95734.91
2022-10-30T04:02:36.018Z,95718.19
2022-10-30T04:05:02.850Z,95719.06
2022-10-30T04:07:29.896Z,95709.84
2022-10-30T04:09:56.606Z,95715.59
2022-10-30T04:12:23.413Z,95720.94
2022-10-30T04:14:50.783Z,95718.25
2022-10-30T04:17:17.789Z,95727.94
2022-10-30T04:19:44.662Z,95727.94
2022-10-30T04:22:11.476Z,95725.28
2022-10-30T04:24:39.653Z,95728.63
2022-10-30T04:27:06.529Z,95731.31
2022-10-30T04:29:33.458Z,95726.78
2022-10-30T04:32:00.848Z,95718.19
2022-10-30T04:34:27.620Z,95709.38
2022-10-30T04:36:55.508Z,95725.97
2022-10-30T04:39:23.021Z,95725.38
2022-10-30T04:41:57.270Z,95729.50
2022-10-30T04:44:31.682Z,95730.31
2022-10-30T04:46:59.151Z,95731.00
2022-10-30T04:49:25.869Z,95734.91
2022-10-30T04:51:53.004Z,95734.31
2022-10-30T04:54:22.161Z,95737.03
2022-10-30T04:56:49.180Z,95734.16
2022-10-30T04:59:16.032Z,95731.94
2022-10-30T05:01:44.051Z,95732.53
2022-10-30T05:04:11.554Z,95735.19
2022-10-30T05:06:39.170Z,95723.78
2022-10-30T05:09:05.830Z,95735.88
2022-10-30T05:11:36.172Z,95739.78
2022-10-30T05:14:03.069Z,95757.63
2022-10-30T05:16:30.025Z,95747.16
2022-10-30T05:18:58.581Z,95753.31
2022-10-30T05:21:25.589Z,95747.97
2022-10-30T05:23:53.858Z,95749.63
2022-10-30T05:26:21.009Z,95747.78
2022-10-30T05:28:47.761Z,95739.78
2022-10-30T05:31:14.429Z,95751.25
2022-10-30T05:34:03.197Z,95748.38
2022-10-30T05:36:34.120Z,95755.56
2022-10-30T05:39:03.056Z,95755.56
2022-10-30T05:41:34.376Z,95747.91
2022-10-30T05:44:01.188Z,95759.16
2022-10-30T05:46:28.253Z,95748.72
2022-10-30T05:48:57.762Z,95750.34
2022-10-30T05:51:25.050Z,95749.09
2022-10-30T05:53:55.768Z,95746.22
2022-10-30T05:56:26.884Z,95750.53
2022-10-30T05:58:56.656Z,95750.31
2022-10-30T06:01:23.455Z,95749.50
2022-10-30T06:03:54.362Z,95751.50
2022-10-30T06:06:24.098Z,95747.22
2022-10-30T06:08:51.063Z,95748.59
2022-10-30T06:11:43.969Z,95747.56
2022-10-30T06:14:11.670Z,95746.75
2022-10-30T06:16:44.763Z,95748.97
2022-10-30T06:19:18.695Z,95752.03
2022-10-30T06:21:48.499Z,95745.00
2022-10-30T06:24:24.448Z,95748.25
2022-10-30T06:27:06.167Z,95751.28
2022-10-30T06:29:32.844Z,95747.59
2022-10-30T06:32:03.951Z,95756.56
2022-10-30T06:34:33.854Z,95747.66
2022-10-30T06:37:00.713Z,95754.84
2022-10-30T06:39:27.761Z,95758.31
2022-10-30T06:42:13.446Z,95752.56
2022-10-30T06:44:49.130Z,95754.56
2022-10-30T06:47:16.228Z,95751.69
2022-10-30T06:49:42.950Z,95750.97
2022-10-30T06:52:09.828Z,95760.19
2022-10-30T06:54:37.104Z,95769.00
2022-10-30T06:57:22.966Z,95760.41
2022-10-30T07:00:09.005Z,95754.41
2022-10-30T07:02:55.375Z,95754.75
2022-10-30T07:05:22.718Z,95765.38
2022-10-30T07:07:49.469Z,95763.09
2022-10-30T07:10:16.790Z,95761.59
2022-10-30T07:13:06.156Z,95771.38
2022-10-30T07:15:51.091Z,95761.41
2022-10-30T07:18:21.805Z,95756.00
2022-10-30T07:20:53.602Z,95744.66
2022-10-30T07:23:20.367Z,95742.94
2022-10-30T07:25:48.290Z,95740.03
2022-10-30T07:28:23.070Z,95736.91
2022-10-30T07:31:09.765Z,95737.28
2022-10-30T07:33:48.823Z,95729.97
2022-10-30T07:36:35.824Z,95735.47
2022-10-30T07:39:22.921Z,95735.78
2022-10-30T07:42:16.012Z,95736.16
2022-10-30T07:45:01.628Z,95737.13
2022-10-30T07:47:42.140Z,95738.03
2022-10-30T07:50:19.345Z,95728.06
2022-10-30T07:52:46.635Z,95724.72
2022-10-30T07:55:15.840Z,95716.59
2022-10-30T07:57:48.726Z,95717.53
2022-10-30T08:00:18.314Z,95720.31
2022-10-30T08:02:59.055Z,95719.84
2022-10-30T08:05:49.309Z,95710.91
2022-10-30T08:08:32.514Z,95706.25
2022-10-30T08:11:28.974Z,95706.97
2022-10-30T08:13:57.801Z,95697.78
2022-10-30T08:16:25.405Z,95704.16
2022-10-30T08:18:52.542Z,95703.44
2022-10-30T08:21:22.971Z,95699.16
2022-10-30T08:24:01.769Z,95688.91
2022-10-30T08:26:31.514Z,95680.28
2022-10-30T08:28:58.393Z,95683.63
2022-10-30T08:31:27.044Z,95685.13
2022-10-30T08:34:03.129Z,95685.53
2022-10-30T08:36:49.391Z,95686.78
2022-10-30T08:39:17.189Z,95685.59
2022-10-30T08:42:13.292Z,95691.94
2022-10-30T08:44:44.086Z,95687.28
2022-10-30T08:47:42.987Z,95687.22
2022-10-30T08:50:10.140Z,95692.50
2022-10-30T08:52:37.417Z,95679.97
2022-10-30T08:55:04.510Z,95680.06
2022-10-30T08:57:35.890Z,95685.78
2022-10-30T09:00:03.997Z,95674.81
2022-10-30T09:02:50.959Z,95676.59
2022-10-30T09:05:38.318Z,95667.56
2022-10-30T09:08:16.985Z,95668.59
2022-10-30T09:11:02.217Z,95660.34
2022-10-30T09:13:30.608Z,95657.75
2022-10-30T09:16:02.498Z,95660.78
2022-10-30T09:18:31.993Z,95658.38
2022-10-30T09:21:03.028Z,95658.72
2022-10-30T09:23:35.029Z,95643.25
2022-10-30T09:26:37.665Z,95655.19
2022-10-30T09:29:12.065Z,95654.81
2022-10-30T09:31:58.452Z,95652.19
2022-10-30T09:37:04.919Z,95647.41
2022-10-30T09:39:36.086Z,95644.25
2022-10-30T09:42:36.457Z,95635.47
2022-10-30T09:45:34.219Z,95624.00
2022-10-30T09:48:20.384Z,95613.84
2022-10-30T09:51:12.953Z,95618.94
2022-10-30T09:53:49.320Z,95620.56
2022-10-30T09:56:41.902Z,95608.00
2022-10-30T09:59:21.427Z,95610.84
2022-10-30T10:01:52.727Z,95604.47
2022-10-30T10:04:27.025Z,95597.06
2022-10-30T10:07:19.962Z,95592.56
2022-10-30T10:10:17.570Z,95592.88
2022-10-30T10:13:00.360Z,95585.44
2022-10-30T10:15:33.805Z,95586.31
2022-10-30T10:18:01.783Z,95573.22
2022-10-30T10:20:32.571Z,95564.94
2022-10-30T10:23:02.661Z,95556.97
2022-10-30T10:25:31.021Z,95557.84
2022-10-30T10:28:03.697Z,95554.13
2022-10-30T10:30:41.570Z,95542.84
2022-10-30T10:33:28.180Z,95545.56
2022-10-30T10:35:54.866Z,95541.31
2022-10-30T10:38:24.505Z,95536.22
2022-10-30T10:40:51.235Z,95530.59
2022-10-30T10:43:18.071Z,95537.03
2022-10-30T10:46:03.720Z,95537.31
2022-10-30T10:48:41.191Z,95525.22
2022-10-30T10:51:12.250Z,95524.66
2022-10-30T10:53:54.460Z,95524.44
2022-10-30T10:56:25.746Z,95519.81
2022-10-30T10:58:56.282Z,95518.22
2022-10-30T11:01:28.227Z,95514.97
2022-10-30T11:04:01.291Z,95502.56
2022-10-30T11:06:29.983Z,95498.19
2022-10-30T11:09:14.209Z,95503.00
2022-10-30T11:11:41.026Z,95497.88
2022-10-30T11:14:29.140Z,95494.06
2022-10-30T11:17:05.143Z,95490.50
2022-10-30T11:19:32.453Z,95479.38
2022-10-30T11:21:59.273Z,95475.88
2022-10-30T11:24:27.737Z,95471.50
2022-10-30T11:26:56.984Z,95470.34
2022-10-30T11:29:25.529Z,95473.31
2022-10-30T11:32:05.565Z,95463.31
2022-10-30T11:34:33.873Z,95459.53
2022-10-30T11:37:00.850Z,95456.56
2022-10-30T11:39:29.530Z,95450.88
2022-10-30T11:41:56.452Z,95449.50
2022-10-30T11:44:25.411Z,95447.09
2022-10-30T11:46:52.589Z,95450.31
2022-10-30T11:49:51.965Z,95447.81
2022-10-30T11:52:21.272Z,95443.16
2022-10-30T11:54:50.592Z,95444.47
2022-10-30T11:57:28.677Z,95443.53
2022-10-30T12:00:04.665Z,95441.19
2022-10-30T12:02:43.052Z,95431.16
2022-10-30T12:05:27.987Z,95431.28
2022-10-30T12:07:56.636Z,95437.63
2022-10-30T12:10:27.985Z,95432.94
2022-10-30T12:12:54.860Z,95431.84
2022-10-30T12:15:24.567Z,95426.13
2022-10-30T12:17:53.017Z,95421.91
2022-10-30T12:20:20.143Z,95423.16
2022-10-30T12:22:47.226Z,95420.69
2022-10-30T12:25:26.876Z,95409.63
2022-10-30T12:28:20.124Z,95412.31
2022-10-30T12:30:52.795Z,95408.47
2022-10-30T12:33:39.697Z,95411.63
2022-10-30T12:36:10.430Z,95408.34
2022-10-30T12:38:40.386Z,95392.09
2022-10-30T12:41:16.204Z,95396.13
2022-10-30T12:43:46.400Z,95401.44
2022-10-30T12:46:33.742Z,95392.28
2022-10-30T12:49:15.882Z,95399.31
2022-10-30T12:51:48.610Z,95392.72
2022-10-30T12:54:15.434Z,95392.63
2022-10-30T12:56:44.289Z,95393.84
2022-10-30T12:59:14.048Z,95389.25
2022-10-30T13:01:55.592Z,95384.78
2022-10-30T13:04:24.364Z,95384.31
2022-10-30T13:06:58.754Z,95381.97
2022-10-30T13:09:28.541Z,95379.56
2022-10-30T13:12:03.321Z,95373.97
2022-10-30T13:14:42.398Z,95368.66
2022-10-30T13:17:13.160Z,95366.84
2022-10-30T13:19:45.154Z,95374.28
2022-10-30T13:22:30.662Z,95372.19
2022-10-30T13:25:00.784Z,95367.75
2022-10-30T13:27:50.188Z,95367.75
2022-10-30T13:30:17.008Z,95366.25
2022-10-30T13:32:50.540Z,95359.31
2022-10-30T13:35:17.997Z,95363.13
2022-10-30T13:37:44.737Z,95362.03
2022-10-30T13:40:18.877Z,95356.09
2022-10-30T13:42:48.538Z,95366.25
2022-10-30T13:45:30.609Z,95366.25
2022-10-30T13:48:06.175Z,95360.41
2022-10-30T13:50:51.684Z,95361.22
2022-10-30T13:53:21.906Z,95363.03
2022-10-30T13:55:51.272Z,95364.63
2022-10-30T13:58:26.530Z,95374.38
2022-10-30T14:01:00.452Z,95371.69
2022-10-30T14:03:41.004Z,95370.38
2022-10-30T14:06:10.796Z,95369.56
2022-10-30T14:09:04.942Z,95364.81
2022-10-30T14:11:31.734Z,95359.91
2022-10-30T14:14:04.278Z,95364.16
2022-10-30T14:16:34.607Z,95361.03
2022-10-30T14:19:03.413Z,95365.44
2022-10-30T14:21:30.105Z,95368.84
2022-10-30T14:24:29.492Z,95369.94
2022-10-30T14:26:56.617Z,95372.19
2022-10-30T14:29:29.356Z,95366.25
2022-10-30T14:31:56.100Z,95371.69
2022-10-30T14:34:41.323Z,95363.63
2022-10-30T14:37:08.558Z,95372.19
2022-10-30T14:39:39.272Z,95379.00
2022-10-30T14:42:11.509Z,95379.59
2022-10-30T14:44:57.601Z,95371.84
2022-10-30T14:47:27.625Z,95373.56
2022-10-30T14:50:01.191Z,95381.50
2022-10-30T14:52:32.547Z,95378.38
2022-10-30T14:55:18.109Z,95381.19
2022-10-30T14:57:51.126Z,95388.41
2022-10-30T15:00:24.126Z,95378.75
2022-10-30T15:03:03.208Z,95386.94
2022-10-30T15:05:37.154Z,95381.03
2022-10-30T15:08:03.939Z,95388.13
2022-10-30T15:10:40.933Z,95378.66
2022-10-30T15:13:08.204Z,95384.16
2022-10-30T15:15:35.550Z,95383.97
2022-10-30T15:18:16.072Z,95381.47
2022-10-30T15:20:44.800Z,95383.75
2022-10-30T15:23:24.546Z,95388.16
2022-10-30T15:25:53.301Z,95388.53
2022-10-30T15:31:00.312Z,95384.56
2022-10-30T15:33:27.975Z,95382.78
2022-10-30T15:35:54.712Z,95391.78
2022-10-30T15:38:21.389Z,95396.09
2022-10-30T15:40:51.162Z,95385.56
2022-10-30T15:43:18.113Z,95389.34
2022-10-30T15:45:45.844Z,95393.16
2022-10-30T15:48:30.175Z,95386.41
2022-10-30T15:51:04.234Z,95392.94
2022-10-30T15:53:43.443Z,95393.59
2022-10-30T15:56:19.925Z,95398.81
2022-10-30T15:58:57.532Z,95388.88
2022-10-30T16:01:30.368Z,95400.47
2022-10-30T16:03:59.558Z,95396.25
2022-10-30T16:06:30.568Z,95395.22
2022-10-30T16:08:57.656Z,95403.41
2022-10-30T16:11:26.208Z,95409.94
2022-10-30T16:13:53.044Z,95412.91
2022-10-30T16:16:21.282Z,95419.16
2022-10-30T16:18:48.287Z,95416.22
2022-10-30T16:21:16.924Z,95420.03
2022-10-30T16:23:48.799Z,95416.03
2022-10-30T16:26:21.672Z,95421.72
2022-10-30T16:28:48.482Z,95431.50
2022-10-30T16:31:16.084Z,95424.53
2022-10-30T16:33:44.682Z,95430.25
2022-10-30T16:36:16.989Z,95432.72
2022-10-30T16:38:48.230Z,95428.19
2022-10-30T16:41:15.269Z,95436.56
2022-10-30T16:43:44.676Z,95439.34
2022-10-30T16:46:14.507Z,95435.09
2022-10-30T16:48:44.183Z,95436.19
2022-10-30T16:51:15.036Z,95436.47
2022-10-30T16:53:46.838Z,95444.84
2022-10-30T16:56:22.513Z,95441.41
2022-10-30T16:58:49.685Z,95443.06
2022-10-30T17:01:16.757Z,95441.19
2022-10-30T17:03:43.884Z,95450.94
2022-10-30T17:06:27.579Z,95444.25
2022-10-30T17:08:57.398Z,95445.91
2022-10-30T17:11:34.840Z,95449.44
2022-10-30T17:14:04.154Z,95437.81
2022-10-30T17:16:32.051Z,95438.69
2022-10-30T17:19:18.117Z,95434.94
2022-10-30T17:21:45.103Z,95444.16
2022-10-30T17:24:20.080Z,95443.84
2022-10-30T17:26:54.537Z,95452.81
2022-10-30T17:29:36.782Z,95448.25
2022-10-30T17:32:04.674Z,95450.69
2022-10-30T17:34:36.728Z,95449.59
2022-10-30T17:37:03.540Z,95446.91
2022-10-30T17:39:30.261Z,95439.91
2022-10-30T17:41:57.415Z,95442.34
2022-10-30T17:44:24.806Z,95445.88
2022-10-30T17:46:52.739Z,95448.28
2022-10-30T17:49:23.777Z,95442.34
2022-10-30T17:51:50.832Z,95444.25
2022-10-30T17:54:17.520Z,95443.78
2022-10-30T17:56:44.272Z,95446.78
2022-10-30T17:59:11.097Z,95437.31
2022-10-30T18:01:37.918Z,95440.59
2022-10-30T18:04:06.001Z,95436.56
2022-10-30T18:06:32.844Z,95442.22
2022-10-30T18:09:00.186Z,95440.34
2022-10-30T18:11:27.531Z,95437.69
2022-10-30T18:13:55.745Z,95437.97
2022-10-30T18:16:22.739Z,95441.25
2022-10-30T18:18:50.219Z,95441.00
2022-10-30T18:21:21.011Z,95441.03
2022-10-30T18:23:55.104Z,95447.53
2022-10-30T18:26:23.418Z,95442.41
2022-10-30T18:28:50.360Z,95439.19
2022-10-30T18:31:18.465Z,95452.44
2022-10-30T18:33:45.839Z,95443.31
2022-10-30T18:36:23.154Z,95442.50
2022-10-30T18:38:50.479Z,95446.84
2022-10-30T18:41:37.399Z,95450.09
2022-10-30T18:44:04.386Z,95452.03
2022-10-30T18:46:32.837Z,95448.25
2022-10-30T18:48:59.533Z,95457.44
2022-10-30T18:51:27.013Z,95449.34
2022-10-30T18:53:53.901Z,95440.19
2022-10-30T18:56:22.850Z,95439.38
2022-10-30T18:58:53.490Z,95439.09
2022-10-30T19:01:23.842Z,95446.41
2022-10-30T19:03:50.787Z,95453.41
2022-10-30T19:06:18.799Z,95458.81
2022-10-30T19:08:47.294Z,95457.72
2022-10-30T19:11:17.648Z,95460.97
2022-10-30T19:13:48.658Z,95463.41
2022-10-30T19:16:16.933Z,95462.59
2022-10-30T19:18:44.410Z,95464.22
2022-10-30T19:21:19.096Z,95466.66
2022-10-30T19:23:46.103Z,95467.19
2022-10-30T19:26:17.308Z,95462.88
2022-10-30T19:28:44.880Z,95463.69
2022-10-30T19:31:13.617Z,95463.16
2022-10-30T19:33:40.653Z,95455.84
2022-10-30T19:36:25.145Z,95452.34
2022-10-30T19:38:52.341Z,95459.63
2022-10-30T19:41:19.099Z,95455.03
2022-10-30T19:43:45.973Z,95452.88
2022-10-30T19:46:13.453Z,95461.25
2022-10-30T19:48:56.786Z,95455.34
2022-10-30T19:51:23.880Z,95454.84
2022-10-30T19:53:52.567Z,95454.56
2022-10-30T19:56:19.875Z,95454.03
2022-10-30T19:58:46.776Z,95459.16
2022-10-30T20:01:13.763Z,95469.41
2022-10-30T20:03:40.585Z,95466.19
2022-10-30T20:06:07.436Z,95471.03
2022-10-30T20:08:34.164Z,95476.44
2022-10-30T20:11:02.082Z,95482.91
2022-10-30T20:13:29.310Z,95481.59
2022-10-30T20:15:56.906Z,95482.13
2022-10-30T20:18:24.982Z,95481.34
2022-10-30T20:20:52.994Z,95490.28
2022-10-30T20:23:20.484Z,95485.69
2022-10-30T20:25:48.332Z,95491.09
2022-10-30T20:28:21.938Z,95491.91
2022-10-30T20:30:49.451Z,95489.47
2022-10-30T20:33:16.703Z,95488.94
2022-10-30T20:35:43.630Z,95489.22
2022-10-30T20:38:15.740Z,95483.81
2022-10-30T20:40:42.424Z,95487.59
2022-10-30T20:43:12.045Z,95489.78
2022-10-30T20:45:38.902Z,95495.72
2022-10-30T20:48:05.604Z,95493.25
2022-10-30T20:50:32.491Z,95485.47
2022-10-30T20:52:59.425Z,95488.19
2022-10-30T20:55:26.473Z,95484.41
2022-10-30T20:57:53.381Z,95481.47
2022-10-30T21:00:20.363Z,95479.56
2022-10-30T21:02:47.057Z,95478.19
2022-10-30T21:05:38.024Z,95474.72
2022-10-30T21:08:02.015Z,95479.88
2022-10-30T21:10:30.545Z,95472.03
2022-10-30T21:12:59.804Z,95470.44
2022-10-30T21:15:29.153Z,95462.59
2022-10-30T21:17:55.862Z,95470.97
2022-10-30T21:20:22.622Z,95470.47
2022-10-30T21:22:49.632Z,95458.59
2022-10-30T21:25:16.337Z,95462.63
2022-10-30T21:27:43.151Z,95470.97
2022-10-30T21:30:10.991Z,95473.16
2022-10-30T21:32:37.729Z,95464.53
2022-10-30T21:35:04.659Z,95471.81
2022-10-30T21:37:36.514Z,95463.44
2022-10-30T21:40:05.165Z,95462.66
2022-10-30T21:42:32.986Z,95461.28
2022-10-30T21:44:59.933Z,95463.44
2022-10-30T21:47:27.066Z,95462.13
2022-10-30T21:49:53.785Z,95477.75
2022-10-30T21:52:20.476Z,95480.19
2022-10-30T21:54:47.209Z,95486.41
2022-10-30T21:57:14.032Z,95483.44
2022-10-30T21:59:40.695Z,95482.09
2022-10-30T22:02:07.891Z,95482.66
2022-10-30T22:04:34.793Z,95488.84
2022-10-30T22:07:01.552Z,95491.25
2022-10-30T22:09:28.400Z,95489.94
2022-10-30T22:11:55.128Z,95491.84
2022-10-30T22:14:24.600Z,95499.34
2022-10-30T22:16:51.545Z,95498.81
2022-10-30T22:19:18.322Z,95500.41
2022-10-30T22:21:44.970Z,95500.19
2022-10-30T22:24:13.763Z,95502.03
2022-10-30T22:26:40.453Z,95497.19
2022-10-30T22:29:07.109Z,95494.75
2022-10-30T22:31:33.887Z,95494.50
2022-10-30T22:34:01.419Z,95490.19
2022-10-30T22:36:32.681Z,95483.72
2022-10-30T22:39:00.455Z,95482.38
2022-10-30T22:41:29.879Z,95482.63
2022-10-30T22:44:00.172Z,95469.44
2022-10-30T22:46:29.126Z,95475.38
2022-10-30T22:48:56.189Z,95468.63
2022-10-30T22:51:22.957Z,95464.59
2022-10-30T22:53:55.007Z,95461.91
2022-10-30T22:56:23.638Z,95469.44
2022-10-30T22:58:50.775Z,95463.25
2022-10-30T23:01:27.867Z,95469.69
2022-10-30T23:03:58.229Z,95461.13
2022-10-30T23:06:25.493Z,95467.03
2022-10-30T23:08:52.867Z,95468.63
2022-10-30T23:11:19.993Z,95461.38
2022-10-30T23:16:31.564Z,95458.94
2022-10-30T23:18:58.951Z,95452.22
2022-10-30T23:21:26.435Z,95450.88
2022-10-30T23:23:53.730Z,95457.31
2022-10-30T23:26:28.445Z,95468.91
2022-10-30T23:28:55.944Z,95475.38
2022-10-30T23:31:30.493Z,95475.66
2022-10-30T23:33:58.646Z,95469.19
2022-10-30T23:36:25.683Z,95474.53
2022-10-30T23:38:56.859Z,95468.38
2022-10-30T23:41:24.917Z,95485.31
2022-10-30T23:43:55.551Z,95484.81
2022-10-30T23:46:22.575Z,95475.91
2022-10-30T23:48:49.561Z,95474.53
2022-10-30T23:51:16.648Z,95468.34
2022-10-30T23:53:43.535Z,95481.56
2022-10-30T23:56:10.223Z,95475.34
2022-10-30T23:58:37.336Z,95472.13
